Inhauma, Brazil
Current Conditions -  °F | °C
As of 10:00 PM on Thursday 27 Nov 2014 (Local Time) from SBLS Reporting Station
Light Rain Light Rain  
Wind Chill: 72°   Ceiling: 7000
Heat Index: 72°   Visibility: 3mi
Dew Point: 68°   Wind: 2mph
Humidity: 88%   Direction: NA
Pressure: 30"   Gusts: NA
Location:  19.49°S, 44.39°W
Report Text: SBLS 280000Z VRB02KT 5000 -RA SCT020 OVC070 22/20 Q1016
Loading
Personal Weather Stations






























Interactive Weather Map New forecast layout! Learn more

10-Day Weather Forecast

Advertisements
Track Severe Weather on mobile